createdAt,value
2019-04-03T00:00:21.738Z,992.4
2019-04-03T00:01:21.713Z,992.39
2019-04-03T00:02:21.697Z,992.4
2019-04-03T00:03:21.668Z,992.39
2019-04-03T00:04:21.727Z,992.37
2019-04-03T00:05:21.617Z,992.4
2019-04-03T00:06:21.594Z,992.4
2019-04-03T00:07:21.567Z,992.44
2019-04-03T00:08:21.542Z,992.45
2019-04-03T00:09:21.529Z,992.42
2019-04-03T00:10:21.535Z,992.4
2019-04-03T00:11:21.471Z,992.41
2019-04-03T00:12:21.450Z,992.45
2019-04-03T00:13:21.459Z,992.49
2019-04-03T00:14:21.399Z,992.42
2019-04-03T00:15:21.375Z,992.48
2019-04-03T00:16:21.350Z,992.46
2019-04-03T00:17:21.327Z,992.45
2019-04-03T00:18:21.301Z,992.5
2019-04-03T00:19:21.276Z,992.44
2019-04-03T00:20:21.252Z,992.52
2019-04-03T00:21:21.228Z,992.51
2019-04-03T00:22:22.029Z,992.52
2019-04-03T00:23:22.313Z,992.56
2019-04-03T00:24:22.516Z,992.56
2019-04-03T00:25:22.283Z,992.54
2019-04-03T00:26:22.427Z,992.54
2019-04-03T00:27:22.252Z,992.55
2019-04-03T00:28:22.333Z,992.51
2019-04-03T00:29:22.625Z,992.58
2019-04-03T00:30:22.440Z,992.55
2019-04-03T00:31:21.584Z,992.58
2019-04-03T00:32:21.716Z,992.54
2019-04-03T00:33:22.935Z,992.56
2019-04-03T00:34:22.953Z,992.52
2019-04-03T00:35:22.999Z,992.58
2019-04-03T00:36:21.570Z,992.58
2019-04-03T00:37:21.482Z,992.53
2019-04-03T00:38:20.812Z,992.53
2019-04-03T00:39:20.904Z,992.52
2019-04-03T00:40:20.798Z,992.54
2019-04-03T00:41:20.742Z,992.54
2019-04-03T00:42:20.716Z,992.53
2019-04-03T00:43:20.692Z,992.53
2019-04-03T00:44:20.666Z,992.55
2019-04-03T00:45:20.643Z,992.52
2019-04-03T00:46:20.724Z,992.52
2019-04-03T00:47:20.593Z,992.53
2019-04-03T00:48:20.569Z,992.52
2019-04-03T00:49:20.543Z,992.54
2019-04-03T00:50:20.519Z,992.49
2019-04-03T00:51:20.495Z,992.5
2019-04-03T00:52:20.479Z,992.5
2019-04-03T00:53:20.445Z,992.5
2019-04-03T00:54:20.423Z,992.45
2019-04-03T00:55:20.402Z,992.49
2019-04-03T00:56:20.378Z,992.44
2019-04-03T00:57:20.346Z,992.41
2019-04-03T00:58:20.322Z,992.46
2019-04-03T00:59:20.297Z,992.48
2019-04-03T01:00:20.272Z,992.4
2019-04-03T01:01:20.257Z,992.35
2019-04-03T01:02:20.220Z,992.35
2019-04-03T01:03:20.197Z,992.33
2019-04-03T01:04:20.173Z,992.33
2019-04-03T01:05:20.151Z,992.36
2019-04-03T01:06:20.121Z,992.38
2019-04-03T01:07:20.096Z,992.35
2019-04-03T01:08:20.071Z,992.37
2019-04-03T01:09:20.048Z,992.4
2019-04-03T01:10:20.022Z,992.37
2019-04-03T01:11:20.120Z,992.39
2019-04-03T01:12:19.974Z,992.39
2019-04-03T01:13:19.947Z,992.36
2019-04-03T01:14:19.923Z,992.39
2019-04-03T01:15:19.897Z,992.37
2019-04-03T01:16:19.873Z,992.33
2019-04-03T01:17:19.848Z,992.34
2019-04-03T01:18:19.900Z,992.37
2019-04-03T01:19:19.797Z,992.32
2019-04-03T01:20:19.773Z,992.32
2019-04-03T01:21:19.853Z,992.26
2019-04-03T01:22:19.722Z,992.28
2019-04-03T01:23:19.697Z,992.25
2019-04-03T01:24:19.747Z,992.25
2019-04-03T01:25:19.647Z,992.21
2019-04-03T01:26:19.623Z,992.17
2019-04-03T01:27:19.705Z,992.13
2019-04-03T01:28:19.572Z,992.18
2019-04-03T01:29:19.548Z,992.17
2019-04-03T01:30:19.523Z,992.16
2019-04-03T01:31:19.504Z,992.12
2019-04-03T01:32:19.472Z,992.12
2019-04-03T01:33:19.447Z,992.11
2019-04-03T01:34:19.422Z,992.13
2019-04-03T01:35:19.397Z,992.18
2019-04-03T01:36:19.372Z,992.18
2019-04-03T01:37:19.471Z,992.22
2019-04-03T01:38:19.862Z,992.26
2019-04-03T01:39:20.991Z,992.27
2019-04-03T01:40:20.824Z,992.28
2019-04-03T01:41:20.997Z,992.29
2019-04-03T01:42:21.178Z,992.29
2019-04-03T01:43:19.197Z,992.35
2019-04-03T01:44:19.171Z,992.32
2019-04-03T01:45:19.145Z,992.33
2019-04-03T01:46:19.121Z,992.32
2019-04-03T01:47:19.097Z,992.34
2019-04-03T01:48:19.072Z,992.36
2019-04-03T01:49:19.045Z,992.39
2019-04-03T01:50:19.063Z,992.39
2019-04-03T01:51:18.997Z,992.37
2019-04-03T01:52:18.977Z,992.37
2019-04-03T01:53:18.946Z,992.36
2019-04-03T01:54:18.924Z,992.37
2019-04-03T01:55:18.898Z,992.38
2019-04-03T01:56:18.871Z,992.39
2019-04-03T01:57:18.845Z,992.41
2019-04-03T01:58:18.820Z,992.36
2019-04-03T01:59:18.794Z,992.37
2019-04-03T02:00:18.775Z,992.42
2019-04-03T02:01:18.744Z,992.37
2019-04-03T02:02:18.732Z,992.38
2019-04-03T02:03:18.695Z,992.37
2019-04-03T02:04:18.670Z,992.35
2019-04-03T02:05:18.646Z,992.37
2019-04-03T02:06:18.619Z,992.43
2019-04-03T02:07:18.594Z,992.45
2019-04-03T02:08:18.569Z,992.4
2019-04-03T02:09:18.551Z,992.43
2019-04-03T02:10:18.519Z,992.39
2019-04-03T02:11:19.185Z,992.45
2019-04-03T02:12:19.702Z,992.47
2019-04-03T02:13:21.037Z,992.48
2019-04-03T02:14:20.963Z,992.5
2019-04-03T02:15:20.994Z,992.51
2019-04-03T02:16:18.368Z,992.49
2019-04-03T02:17:18.343Z,992.46
2019-04-03T02:18:18.354Z,992.44
2019-04-03T02:19:18.293Z,992.45
2019-04-03T02:20:18.268Z,992.42
2019-04-03T02:21:18.242Z,992.44
2019-04-03T02:22:18.219Z,992.45
2019-04-03T02:23:18.355Z,992.46
2019-04-03T02:24:18.166Z,992.43
2019-04-03T02:25:18.142Z,992.45
2019-04-03T02:26:18.117Z,992.47
2019-04-03T02:27:18.091Z,992.46
2019-04-03T02:28:18.066Z,992.45
2019-04-03T02:29:18.041Z,992.39
2019-04-03T02:30:18.178Z,992.37
2019-04-03T02:31:19.655Z,992.37
2019-04-03T02:32:17.966Z,992.37
2019-04-03T02:33:17.940Z,992.37
2019-04-03T02:34:17.915Z,992.35
2019-04-03T02:35:18.194Z,992.39
2019-04-03T02:36:17.970Z,992.31
2019-04-03T02:37:18.026Z,992.37
2019-04-03T02:38:21.282Z,992.34
2019-04-03T02:39:18.070Z,992.38
2019-04-03T02:40:17.763Z,992.32
2019-04-03T02:41:17.785Z,992.4
2019-04-03T02:42:17.712Z,992.38
2019-04-03T02:43:17.687Z,992.35
2019-04-03T02:44:18.802Z,992.38
2019-04-03T02:45:17.693Z,992.34
2019-04-03T02:46:17.850Z,992.38
2019-04-03T02:47:17.603Z,992.34
2019-04-03T02:48:17.559Z,992.31
2019-04-03T02:49:17.535Z,992.31
2019-04-03T02:50:17.656Z,992.32
2019-04-03T02:51:19.444Z,992.24
2019-04-03T02:52:17.761Z,992.31
2019-04-03T02:53:17.433Z,992.28
2019-04-03T02:54:17.446Z,992.26
2019-04-03T02:55:17.380Z,992.25
2019-04-03T02:56:17.463Z,992.28
2019-04-03T02:57:18.073Z,992.24
2019-04-03T02:58:21.040Z,992.2
2019-04-03T02:59:17.286Z,992.19
2019-04-03T03:00:17.316Z,992.17
2019-04-03T03:01:17.482Z,992.18
2019-04-03T03:02:17.211Z,992.16
2019-04-03T03:03:18.070Z,992.13
2019-04-03T03:04:20.211Z,992.15
2019-04-03T03:05:17.125Z,992.17
2019-04-03T03:06:17.441Z,992.11
2019-04-03T03:07:17.076Z,992.17
2019-04-03T03:08:17.052Z,992.16
2019-04-03T03:09:17.046Z,992.15
2019-04-03T03:10:18.964Z,992.11
2019-04-03T03:11:16.972Z,992.15
2019-04-03T03:12:16.947Z,992.16
2019-04-03T03:13:16.922Z,992.16
2019-04-03T03:14:16.933Z,992.19
2019-04-03T03:15:16.874Z,992.18
2019-04-03T03:16:18.396Z,992.14
2019-04-03T03:17:16.819Z,992.17
2019-04-03T03:18:16.794Z,992.19
2019-04-03T03:19:16.769Z,992.2
2019-04-03T03:20:16.745Z,992.17
2019-04-03T03:21:16.718Z,992.17
2019-04-03T03:22:17.915Z,992.23
2019-04-03T03:23:16.682Z,992.24
2019-04-03T03:24:16.643Z,992.23
2019-04-03T03:25:16.615Z,992.2
2019-04-03T03:26:16.591Z,992.18
2019-04-03T03:27:16.756Z,992.18
2019-04-03T03:28:16.543Z,992.2
2019-04-03T03:29:19.651Z,992.17
2019-04-03T03:30:35.424Z,992.13
2019-04-03T03:31:16.497Z,992.09
2019-04-03T03:32:29.421Z,992.07
2019-04-03T03:33:29.610Z,992.01
2019-04-03T03:34:44.562Z,992.03
2019-04-03T03:35:43.354Z,992.06
2019-04-03T03:36:38.986Z,992.02
2019-04-03T03:37:38.893Z,992.05
2019-04-03T03:38:40.017Z,992.07
2019-04-03T03:39:42.190Z,992.02
2019-04-03T03:40:38.763Z,992.08
2019-04-03T03:41:38.741Z,992.09
2019-04-03T03:42:38.714Z,992.09
2019-04-03T03:43:39.095Z,992.11
2019-04-03T03:44:43.034Z,992.13
2019-04-03T03:45:38.636Z,992.18
2019-04-03T03:46:38.610Z,992.2
2019-04-03T03:47:38.887Z,992.19
2019-04-03T03:48:41.925Z,992.2
2019-04-03T03:49:38.874Z,992.18
2019-04-03T03:50:38.506Z,992.16
2019-04-03T03:51:38.482Z,992.17
2019-04-03T03:52:39.050Z,992.12
2019-04-03T03:53:38.428Z,992.15
2019-04-03T03:54:38.682Z,992.14
2019-04-03T03:55:38.738Z,992.12
2019-04-03T03:56:38.357Z,992.11
2019-04-03T03:57:39.744Z,992.09
2019-04-03T03:58:38.298Z,992.04
2019-04-03T03:59:38.426Z,992.13
2019-04-03T04:00:38.803Z,992.11
2019-04-03T04:01:38.334Z,992.15
2019-04-03T04:02:42.651Z,992.15
2019-04-03T04:03:41.018Z,992.16
2019-04-03T04:04:38.489Z,992.17
2019-04-03T04:05:38.359Z,992.13
2019-04-03T04:06:38.300Z,992.14
2019-04-03T04:07:38.362Z,992.12
2019-04-03T04:08:38.042Z,992.11
2019-04-03T04:09:38.122Z,992.09
2019-04-03T04:10:37.997Z,992.11
2019-04-03T04:11:37.970Z,992.11
2019-04-03T04:12:40.844Z,992.11
2019-04-03T04:13:37.911Z,992.1
2019-04-03T04:14:38.266Z,992.1
2019-04-03T04:15:37.979Z,992.11
2019-04-03T04:16:38.375Z,992.07
2019-04-03T04:17:38.029Z,992.08
2019-04-03T04:18:38.158Z,992.08
2019-04-03T04:19:37.807Z,992.08
2019-04-03T04:20:38.450Z,992.08
2019-04-03T04:21:37.707Z,992.07
2019-04-03T04:22:37.734Z,992.03
2019-04-03T04:23:37.652Z,992.01
2019-04-03T04:24:37.626Z,992.02
2019-04-03T04:25:37.780Z,992.02
2019-04-03T04:26:37.579Z,992.01
2019-04-03T04:27:38.975Z,992
2019-04-03T04:28:39.185Z,991.95
2019-04-03T04:29:37.704Z,992.03
2019-04-03T04:30:37.471Z,991.97
2019-04-03T04:31:37.446Z,992.02
2019-04-03T04:32:37.607Z,991.92
2019-04-03T04:33:37.392Z,991.92
2019-04-03T04:34:37.369Z,991.91
2019-04-03T04:35:37.421Z,991.93
2019-04-03T04:36:37.316Z,991.93
2019-04-03T04:37:39.767Z,991.92
2019-04-03T04:38:37.462Z,991.91
2019-04-03T04:39:37.238Z,991.86
2019-04-03T04:40:37.212Z,991.9
2019-04-03T04:41:37.272Z,991.84
2019-04-03T04:42:37.161Z,991.83
2019-04-03T04:43:37.611Z,991.81
2019-04-03T04:44:37.129Z,991.83
2019-04-03T04:45:37.082Z,991.8
2019-04-03T04:46:37.290Z,991.8
2019-04-03T04:47:37.031Z,991.78
2019-04-03T04:48:37.004Z,991.8
2019-04-03T04:49:36.985Z,991.83
2019-04-03T04:50:36.997Z,991.84
2019-04-03T04:51:36.992Z,991.88
2019-04-03T04:52:36.901Z,991.85
2019-04-03T04:53:36.920Z,991.91
2019-04-03T04:54:36.854Z,991.9
2019-04-03T04:55:36.824Z,991.96
2019-04-03T04:56:37.673Z,991.96
2019-04-03T04:57:36.831Z,991.96
2019-04-03T04:58:36.745Z,991.95
2019-04-03T04:59:37.052Z,991.95
2019-04-03T05:00:36.693Z,991.96
2019-04-03T05:01:36.713Z,991.94
2019-04-03T05:02:36.640Z,991.97
2019-04-03T05:03:36.617Z,991.94
2019-04-03T05:04:36.690Z,991.96
2019-04-03T05:05:36.563Z,991.94
2019-04-03T05:06:36.537Z,992
2019-04-03T05:07:36.510Z,991.93
2019-04-03T05:08:36.694Z,991.94
2019-04-03T05:09:36.618Z,991.95
2019-04-03T05:10:36.858Z,991.97
2019-04-03T05:11:36.807Z,991.98
2019-04-03T05:12:36.385Z,991.99
2019-04-03T05:13:36.357Z,992.01
2019-04-03T05:14:36.477Z,991.98
2019-04-03T05:15:36.306Z,992.01
2019-04-03T05:16:36.279Z,991.98
2019-04-03T05:17:36.252Z,991.98
2019-04-03T05:18:36.531Z,991.98
2019-04-03T05:19:36.202Z,991.97
2019-04-03T05:20:36.299Z,991.98
2019-04-03T05:21:36.150Z,992.02
2019-04-03T05:22:36.124Z,992.02
2019-04-03T05:23:36.098Z,991.98
2019-04-03T05:24:36.190Z,992.01
2019-04-03T05:25:36.053Z,991.97
2019-04-03T05:26:36.297Z,991.99
2019-04-03T05:27:35.994Z,991.96
2019-04-03T05:28:35.967Z,992.02
2019-04-03T05:29:36.045Z,991.99
2019-04-03T05:30:37.500Z,992.03
2019-04-03T05:31:38.449Z,992.02
2019-04-03T05:32:35.865Z,992.02
2019-04-03T05:33:35.839Z,992.05
2019-04-03T05:34:35.815Z,992.05
2019-04-03T05:35:37.539Z,992.04
2019-04-03T05:36:35.762Z,992.03
2019-04-03T05:37:35.772Z,992.06
2019-04-03T05:38:37.579Z,992.02
2019-04-03T05:39:35.805Z,992.06
2019-04-03T05:40:35.658Z,992.05
2019-04-03T05:41:35.633Z,992.04
2019-04-03T05:42:35.608Z,992.02
2019-04-03T05:43:35.622Z,992.05
2019-04-03T05:44:35.628Z,992.06
2019-04-03T05:45:35.689Z,992.06
2019-04-03T05:46:37.379Z,992.06
2019-04-03T05:47:38.324Z,992.04
2019-04-03T05:48:35.457Z,992.05
2019-04-03T05:49:35.425Z,992.03
2019-04-03T05:50:36.363Z,992.04
2019-04-03T05:51:35.373Z,992.03
2019-04-03T05:52:35.705Z,992.06
2019-04-03T05:53:37.154Z,992.09
2019-04-03T05:54:38.354Z,992.09
2019-04-03T05:55:35.273Z,992.11
2019-04-03T05:56:35.244Z,992.12
2019-04-03T05:57:35.219Z,992.12
2019-04-03T05:58:35.271Z,992.05
2019-04-03T05:59:35.331Z,992.06
2019-04-03T06:00:37.444Z,992.06
2019-04-03T06:01:35.116Z,992.02
2019-04-03T06:02:35.162Z,992.05
2019-04-03T06:03:40.653Z,992.02
2019-04-03T06:04:35.041Z,992.03
2019-04-03T06:05:35.013Z,992.04
2019-04-03T06:06:34.991Z,992.02
2019-04-03T06:07:35.200Z,992.04
2019-04-03T06:08:35.307Z,992.08
2019-04-03T06:09:34.910Z,992.04
2019-04-03T06:10:37.015Z,992.02
2019-04-03T06:11:34.857Z,992
2019-04-03T06:12:36.625Z,992.07
2019-04-03T06:13:34.809Z,992.05
2019-04-03T06:14:34.779Z,992.08
2019-04-03T06:15:34.754Z,992.02
2019-04-03T06:16:34.727Z,992.01
2019-04-03T06:17:34.702Z,992.02
2019-04-03T06:18:34.676Z,992
2019-04-03T06:19:35.698Z,992.01
2019-04-03T06:20:34.623Z,992.04
2019-04-03T06:21:34.598Z,992.02
2019-04-03T06:22:34.652Z,991.98
2019-04-03T06:23:34.545Z,992.01
2019-04-03T06:24:34.683Z,991.99
2019-04-03T06:25:34.781Z,991.94
2019-04-03T06:26:35.674Z,992.01
2019-04-03T06:27:34.443Z,991.99
2019-04-03T06:28:34.511Z,992.01
2019-04-03T06:29:34.589Z,992.01
2019-04-03T06:30:34.366Z,992.02
2019-04-03T06:31:34.339Z,991.96
2019-04-03T06:32:34.331Z,991.95
2019-04-03T06:33:35.528Z,991.94
2019-04-03T06:34:34.261Z,991.92
2019-04-03T06:35:34.887Z,991.9
2019-04-03T06:36:34.209Z,991.87
2019-04-03T06:37:34.402Z,991.91
2019-04-03T06:38:34.363Z,991.88
2019-04-03T06:39:34.134Z,991.92
2019-04-03T06:40:35.431Z,991.91
2019-04-03T06:41:34.079Z,991.91
2019-04-03T06:42:34.248Z,991.92
2019-04-03T06:43:34.029Z,991.88
2019-04-03T06:44:34.004Z,991.92
2019-04-03T06:45:34.213Z,991.9
2019-04-03T06:46:33.951Z,991.99
2019-04-03T06:47:33.927Z,991.97
2019-04-03T06:48:34.561Z,991.99
2019-04-03T06:49:33.875Z,991.98
2019-04-03T06:50:33.850Z,992
2019-04-03T06:51:33.823Z,991.97
2019-04-03T06:52:34.064Z,991.97
2019-04-03T06:53:33.772Z,991.99
2019-04-03T06:54:33.747Z,992
2019-04-03T06:55:35.223Z,991.99
2019-04-03T06:56:33.730Z,992.03
2019-04-03T06:57:33.668Z,992.03
2019-04-03T06:58:38.471Z,992.02
2019-04-03T06:59:33.791Z,992.1
2019-04-03T07:00:33.590Z,992.07
2019-04-03T07:01:33.565Z,992.11
2019-04-03T07:02:33.539Z,992.15
2019-04-03T07:03:34.295Z,992.15
2019-04-03T07:04:33.662Z,992.13
2019-04-03T07:05:33.460Z,992.16
2019-04-03T07:06:33.435Z,992.16
2019-04-03T07:07:35.195Z,992.16
2019-04-03T07:08:35.794Z,992.14
2019-04-03T07:09:36.226Z,992.13
2019-04-03T07:10:34.482Z,992.17
2019-04-03T07:11:33.320Z,992.18
2019-04-03T07:12:33.980Z,992.22
2019-04-03T07:13:33.597Z,992.19
2019-04-03T07:14:33.307Z,992.22
2019-04-03T07:15:33.325Z,992.24
2019-04-03T07:16:33.176Z,992.29
2019-04-03T07:17:33.149Z,992.31
2019-04-03T07:18:33.127Z,992.35
2019-04-03T07:19:33.218Z,992.37
2019-04-03T07:20:33.072Z,992.38
2019-04-03T07:21:33.045Z,992.37
2019-04-03T07:22:33.019Z,992.36
2019-04-03T07:23:32.993Z,992.35
2019-04-03T07:24:32.966Z,992.35
2019-04-03T07:25:33.846Z,992.36
2019-04-03T07:26:33.605Z,992.34
2019-04-03T07:27:32.888Z,992.38
2019-04-03T07:28:33.114Z,992.42
2019-04-03T07:29:32.842Z,992.42
2019-04-03T07:30:32.812Z,992.43
2019-04-03T07:31:32.785Z,992.45
2019-04-03T07:32:32.759Z,992.43
2019-04-03T07:33:32.823Z,992.45
2019-04-03T07:34:34.214Z,992.4
2019-04-03T07:35:32.751Z,992.44
2019-04-03T07:36:32.652Z,992.42
2019-04-03T07:37:32.643Z,992.42
2019-04-03T07:38:32.601Z,992.4
2019-04-03T07:39:32.680Z,992.38
2019-04-03T07:40:32.547Z,992.43
2019-04-03T07:41:32.522Z,992.41
2019-04-03T07:42:32.496Z,992.39
2019-04-03T07:43:32.550Z,992.36
2019-04-03T07:44:32.767Z,992.42
2019-04-03T07:45:32.914Z,992.37
2019-04-03T07:46:33.154Z,992.35
2019-04-03T07:47:34.325Z,992.37
2019-04-03T07:48:33.214Z,992.39
2019-04-03T07:49:32.313Z,992.41
2019-04-03T07:50:32.314Z,992.45
2019-04-03T07:51:32.264Z,992.4
2019-04-03T07:52:32.236Z,992.46
2019-04-03T07:53:32.212Z,992.43
2019-04-03T07:54:32.505Z,992.46
2019-04-03T07:55:32.261Z,992.52
2019-04-03T07:56:32.283Z,992.5
2019-04-03T07:57:32.183Z,992.51
2019-04-03T07:58:32.600Z,992.54
2019-04-03T07:59:33.569Z,992.55
2019-04-03T08:00:32.035Z,992.57
2019-04-03T08:01:32.009Z,992.54
2019-04-03T08:02:33.639Z,992.59
2019-04-03T08:03:31.949Z,992.55
2019-04-03T08:04:32.071Z,992.56
2019-04-03T08:05:32.081Z,992.52
2019-04-03T08:06:32.972Z,992.57
2019-04-03T08:07:31.845Z,992.55
2019-04-03T08:08:31.818Z,992.52
2019-04-03T08:09:31.792Z,992.52
2019-04-03T08:10:31.850Z,992.53
2019-04-03T08:11:32.759Z,992.53
2019-04-03T08:12:34.377Z,992.55
2019-04-03T08:13:32.006Z,992.5
2019-04-03T08:14:31.664Z,992.52
2019-04-03T08:15:31.868Z,992.52
2019-04-03T08:16:31.874Z,992.48
2019-04-03T08:17:31.586Z,992.54
2019-04-03T08:18:31.566Z,992.51
2019-04-03T08:19:31.533Z,992.55
2019-04-03T08:20:31.592Z,992.59
2019-04-03T08:21:31.786Z,992.53
2019-04-03T08:22:33.292Z,992.55
2019-04-03T08:23:31.459Z,992.54
2019-04-03T08:24:31.403Z,992.55
2019-04-03T08:25:31.377Z,992.58
2019-04-03T08:26:31.515Z,992.61
2019-04-03T08:27:31.361Z,992.58
2019-04-03T08:28:31.298Z,992.58
2019-04-03T08:29:33.208Z,992.6
2019-04-03T08:30:31.246Z,992.57
2019-04-03T08:31:31.220Z,992.58
2019-04-03T08:32:31.197Z,992.57
2019-04-03T08:33:32.873Z,992.55
2019-04-03T08:34:32.093Z,992.54
2019-04-03T08:35:32.777Z,992.55
2019-04-03T08:36:31.090Z,992.55
2019-04-03T08:37:32.164Z,992.54
2019-04-03T08:38:31.107Z,992.59
2019-04-03T08:39:31.013Z,992.6
2019-04-03T08:40:31.212Z,992.57
2019-04-03T08:41:31.091Z,992.58
2019-04-03T08:42:32.523Z,992.58
2019-04-03T08:43:32.351Z,992.57
2019-04-03T08:44:30.882Z,992.59
2019-04-03T08:45:30.855Z,992.58
2019-04-03T08:46:30.831Z,992.6
2019-04-03T08:47:30.907Z,992.55
2019-04-03T08:48:30.778Z,992.56
2019-04-03T08:49:30.755Z,992.56
2019-04-03T08:50:30.728Z,992.55
2019-04-03T08:51:31.874Z,992.56
2019-04-03T08:52:30.747Z,992.56
2019-04-03T08:53:30.652Z,992.58
2019-04-03T08:54:30.771Z,992.56
2019-04-03T08:55:30.705Z,992.53
2019-04-03T08:56:30.595Z,992.51
2019-04-03T08:57:30.591Z,992.58
2019-04-03T08:58:30.526Z,992.57
2019-04-03T08:59:30.573Z,992.58
2019-04-03T09:00:32.043Z,992.59
2019-04-03T09:01:30.453Z,992.61
2019-04-03T09:02:30.794Z,992.63
2019-04-03T09:03:30.404Z,992.61
2019-04-03T09:04:30.389Z,992.58
2019-04-03T09:05:30.633Z,992.55
2019-04-03T09:06:30.375Z,992.56
2019-04-03T09:07:30.304Z,992.57
2019-04-03T09:08:30.278Z,992.59
2019-04-03T09:09:30.552Z,992.59
2019-04-03T09:10:32.122Z,992.65
2019-04-03T09:11:30.206Z,992.56
2019-04-03T09:12:30.181Z,992.6
2019-04-03T09:13:30.251Z,992.6
2019-04-03T09:14:30.376Z,992.57
2019-04-03T09:15:30.337Z,992.56
2019-04-03T09:16:30.855Z,992.51
2019-04-03T09:17:30.116Z,992.53
2019-04-03T09:18:30.934Z,992.48
2019-04-03T09:19:30.310Z,992.49
2019-04-03T09:20:30.234Z,992.44
2019-04-03T09:21:29.965Z,992.48
2019-04-03T09:22:29.944Z,992.43
2019-04-03T09:23:29.919Z,992.45
2019-04-03T09:24:30.256Z,992.41
2019-04-03T09:25:31.555Z,992.4
2019-04-03T09:26:29.985Z,992.4
2019-04-03T09:27:29.826Z,992.41
2019-04-03T09:28:29.804Z,992.37
2019-04-03T09:29:29.780Z,992.37
2019-04-03T09:30:29.761Z,992.37
2019-04-03T09:31:29.779Z,992.34
2019-04-03T09:32:30.004Z,992.37
2019-04-03T09:33:30.302Z,992.33
2019-04-03T09:34:31.129Z,992.31
2019-04-03T09:35:32.040Z,992.29
2019-04-03T09:36:29.624Z,992.3
2019-04-03T09:37:29.765Z,992.29
2019-04-03T09:38:29.709Z,992.27
2019-04-03T09:39:29.563Z,992.24
2019-04-03T09:40:29.537Z,992.24
2019-04-03T09:41:29.595Z,992.14
2019-04-03T09:42:29.493Z,992.13
2019-04-03T09:43:29.471Z,992.09
2019-04-03T09:44:29.551Z,992.07
2019-04-03T09:45:29.427Z,992.04
2019-04-03T09:46:31.457Z,992
2019-04-03T09:47:29.668Z,991.99
2019-04-03T09:48:29.362Z,992.02
2019-04-03T09:49:29.339Z,991.95
2019-04-03T09:50:29.318Z,991.94
2019-04-03T09:51:29.295Z,992.03
2019-04-03T09:52:38.686Z,992.01
2019-04-03T09:53:29.526Z,992.05
2019-04-03T09:54:29.588Z,992.13
2019-04-03T09:55:33.423Z,992.26
2019-04-03T09:56:29.186Z,992.26
2019-04-03T09:57:31.255Z,992.28
2019-04-03T09:58:29.148Z,992.29
2019-04-03T09:59:29.118Z,992.33
2019-04-03T10:00:29.096Z,992.34
2019-04-03T10:01:29.073Z,992.33
2019-04-03T10:02:29.049Z,992.38
2019-04-03T10:03:30.579Z,992.37
2019-04-03T10:04:29.005Z,992.39
2019-04-03T10:05:29.679Z,992.38
2019-04-03T10:06:30.669Z,992.35
2019-04-03T10:07:31.059Z,992.4
2019-04-03T10:08:28.912Z,992.34
2019-04-03T10:09:28.888Z,992.35
2019-04-03T10:10:28.865Z,992.37
2019-04-03T10:11:29.051Z,992.38
2019-04-03T10:12:31.665Z,992.35
2019-04-03T10:13:29.145Z,992.37
2019-04-03T10:14:29.048Z,992.36
2019-04-03T10:15:29.002Z,992.3
2019-04-03T10:16:28.729Z,992.33
2019-04-03T10:17:28.969Z,992.32
2019-04-03T10:18:28.682Z,992.33
2019-04-03T10:19:28.658Z,992.29
2019-04-03T10:20:28.645Z,992.3
2019-04-03T10:21:28.839Z,992.28
2019-04-03T10:22:28.590Z,992.27
2019-04-03T10:23:29.190Z,992.29
2019-04-03T10:24:28.879Z,992.28
2019-04-03T10:25:28.520Z,992.27
2019-04-03T10:26:30.767Z,992.24
2019-04-03T10:27:28.475Z,992.26
2019-04-03T10:28:28.665Z,992.17
2019-04-03T10:29:28.511Z,992.15
2019-04-03T10:30:28.414Z,992.16
2019-04-03T10:31:28.381Z,992.17
2019-04-03T10:32:28.574Z,992.13
2019-04-03T10:33:29.141Z,992.12
2019-04-03T10:34:28.312Z,992.09
2019-04-03T10:35:28.436Z,992.11
2019-04-03T10:36:28.586Z,992.1
2019-04-03T10:37:28.242Z,992.09
2019-04-03T10:38:28.479Z,992.1
2019-04-03T10:39:28.194Z,992.11
2019-04-03T10:40:28.470Z,992.08
2019-04-03T10:41:29.031Z,992.09
2019-04-03T10:42:28.894Z,992.1
2019-04-03T10:43:28.107Z,992.07
2019-04-03T10:44:28.080Z,992.07
2019-04-03T10:45:28.058Z,991.99
2019-04-03T10:46:28.034Z,992.01
2019-04-03T10:47:39.981Z,992
2019-04-03T10:48:28.668Z,991.98
2019-04-03T10:49:27.968Z,991.95
2019-04-03T10:50:27.943Z,991.95
2019-04-03T10:51:30.609Z,991.95
2019-04-03T10:52:27.905Z,991.89
2019-04-03T10:53:27.880Z,991.84
2019-04-03T10:54:27.860Z,991.88
2019-04-03T10:55:29.323Z,991.87
2019-04-03T10:56:28.970Z,991.84
2019-04-03T10:57:27.789Z,991.77
2019-04-03T10:58:27.973Z,991.73
2019-04-03T10:59:27.972Z,991.68
2019-04-03T11:00:29.136Z,991.66
2019-04-03T11:01:27.714Z,991.66
2019-04-03T11:02:27.678Z,991.66
2019-04-03T11:03:27.658Z,991.62
2019-04-03T11:04:27.635Z,991.66
2019-04-03T11:05:27.614Z,991.71
2019-04-03T11:06:27.598Z,991.72
2019-04-03T11:07:27.822Z,991.74
2019-04-03T11:08:27.551Z,991.8
2019-04-03T11:09:27.819Z,991.72
2019-04-03T11:10:27.643Z,991.73
2019-04-03T11:11:29.630Z,991.72
2019-04-03T11:12:27.469Z,991.7
2019-04-03T11:13:27.448Z,991.65
2019-04-03T11:14:27.428Z,991.65
2019-04-03T11:15:27.419Z,991.64
2019-04-03T11:16:27.575Z,991.58
2019-04-03T11:17:27.367Z,991.56
2019-04-03T11:18:27.349Z,991.57
2019-04-03T11:19:27.327Z,991.57
2019-04-03T11:20:27.333Z,991.61
2019-04-03T11:21:27.561Z,991.62
2019-04-03T11:22:34.455Z,991.63
2019-04-03T11:23:37.523Z,991.66
2019-04-03T11:24:27.227Z,991.61
2019-04-03T11:25:27.223Z,991.57
2019-04-03T11:26:27.208Z,991.5
2019-04-03T11:27:40.374Z,991.5
2019-04-03T11:28:27.143Z,991.53
2019-04-03T11:29:27.264Z,991.51
2019-04-03T11:30:27.464Z,991.45
2019-04-03T11:31:28.836Z,991.43
2019-04-03T11:32:27.252Z,991.3
2019-04-03T11:33:27.044Z,991.25
2019-04-03T11:34:27.023Z,991.25
2019-04-03T11:35:27.121Z,991.18
2019-04-03T11:36:30.078Z,991.14
2019-04-03T11:37:27.238Z,991.08
2019-04-03T11:38:28.680Z,991.02
2019-04-03T11:39:26.925Z,991
2019-04-03T11:40:26.930Z,990.96
2019-04-03T11:41:26.990Z,990.93
2019-04-03T11:42:29.286Z,990.93
2019-04-03T11:43:26.860Z,990.94
2019-04-03T11:44:26.831Z,990.95
2019-04-03T11:45:27.075Z,990.92
2019-04-03T11:46:26.791Z,990.92
2019-04-03T11:47:26.868Z,990.93
2019-04-03T11:48:27.690Z,990.97
2019-04-03T11:49:26.788Z,991.02
2019-04-03T11:50:26.714Z,991.02
2019-04-03T11:51:28.583Z,991.01
2019-04-03T11:52:26.678Z,991.04
2019-04-03T11:53:26.960Z,991.06
2019-04-03T11:54:26.640Z,991.07
2019-04-03T11:55:26.662Z,991.08
2019-04-03T11:56:26.603Z,991.15
2019-04-03T11:57:27.261Z,991.15
2019-04-03T11:58:26.692Z,991.13
2019-04-03T11:59:26.547Z,991.13
2019-04-03T12:00:26.592Z,991.17
2019-04-03T12:01:26.579Z,991.17
2019-04-03T12:02:26.509Z,991.14
2019-04-03T12:03:26.790Z,991.1
2019-04-03T12:04:26.460Z,991.1
2019-04-03T12:05:26.439Z,991.03
2019-04-03T12:06:26.478Z,991
2019-04-03T12:07:26.401Z,990.94
2019-04-03T12:08:28.116Z,990.95
2019-04-03T12:09:26.369Z,990.93
2019-04-03T12:10:26.801Z,990.99
2019-04-03T12:11:26.332Z,990.98
2019-04-03T12:12:26.332Z,990.98
2019-04-03T12:13:26.337Z,990.97
2019-04-03T12:14:26.285Z,990.97
2019-04-03T12:15:26.266Z,990.87
2019-04-03T12:16:26.644Z,990.91
2019-04-03T12:17:26.964Z,990.78
2019-04-03T12:18:26.253Z,990.77
2019-04-03T12:19:26.194Z,990.8
2019-04-03T12:20:26.201Z,990.82
2019-04-03T12:21:26.175Z,990.82
2019-04-03T12:22:26.286Z,990.77
2019-04-03T12:23:27.167Z,990.76
2019-04-03T12:24:26.187Z,990.74
2019-04-03T12:25:26.362Z,990.77
2019-04-03T12:26:26.444Z,990.85
2019-04-03T12:27:26.281Z,990.93
2019-04-03T12:28:26.227Z,990.96
2019-04-03T12:29:26.386Z,991.01
2019-04-03T12:30:26.778Z,990.99
2019-04-03T12:31:25.990Z,990.99